Corsair — WDI5217 — position and weather

sailwx.info

Track history (hours):
 
Tides and Currents Weather Stations Pressure Air Temp Water Temp Dewpoint Dewpoint Depression Visibility Wind Speed Wind Dir Waves Ship Positions

Corsair

Owner: MIFC SHIPPING LLC, Saint Ignace, MI. More information available from US FCC via Universal Licensing System and Coast Guard Vessel Documentation Center.

Last reported at 2018-Jan-25 17:01 UTC. Time now 2018-Feb-18 20:31 UTC.
Position N 45°51' W 084°37'.
Warning: this ship's position is 24 days out of date.

Length 28 m; draft 2.1 m.

Type: Cargo ship. MMSI: 367706320.

Date/timePositionNaut miles runAvg speedWind from/ knotsBaromVisibWave heightAir tempDewpointWater temp
2018-Jan-25 17:01N 45°51' W 084°37'0 0.0
2018-Jan-25 17:00N 45°51' W 084°37'0 0.0
2018-Jan-25 16:29N 45°51' W 084°37'0 0.0
2018-Jan-25 15:59N 45°51' W 084°37'0 0.0
2018-Jan-25 15:29N 45°51' W 084°37'0 0.0
2018-Jan-25 14:55N 45°51' W 084°37'0 0.0
2018-Jan-25 14:21N 45°51' W 084°37'0 0.0
2018-Jan-25 13:54N 45°51' W 084°37'0 0.0
2018-Jan-24 23:43N 45°51' W 084°37'1 4.4
2018-Jan-24 23:30N 45°51' W 084°38'3 1.4
2018-Jan-24 21:34N 45°51' W 084°42'0 5.5
2018-Jan-24 21:31N 45°51' W 084°42'3 6.0
2018-Jan-24 20:59N 45°51' W 084°37'0 0.0
2018-Jan-24 20:18N 45°51' W 084°37'0 0.1
2018-Jan-24 19:55N 45°51' W 084°37'2 4.4
2018-Jan-24 19:26N 45°51' W 084°40'2 0.7
2018-Jan-24 17:07N 45°51' W 084°42'0 1.9
2018-Jan-24 17:00N 45°51' W 084°42'0 0.5
2018-Jan-24 16:29N 45°51' W 084°41'2 3.6
2018-Jan-24 15:58N 45°51' W 084°39'1 2.7
2018-Jan-24 15:29N 45°51' W 084°37'  
Track history (hours):
 
Tides and Currents Weather Stations Pressure Air Temp Water Temp Dewpoint Dewpoint Depression Visibility Wind Speed Wind Dir Waves Ship Positions

Corsair

Owner: MIFC SHIPPING LLC, Saint Ignace, MI. More information available from US FCC via Universal Licensing System and Coast Guard Vessel Documentation Center.

Last reported at 2018-Jan-25 17:01 UTC. Time now 2018-Feb-18 20:31 UTC.
Position N 45°51' W 084°37'.
Warning: this ship's position is 24 days out of date.

Length 28 m; draft 2.1 m.

Type: Cargo ship. MMSI: 367706320.

Date/timePositionNaut miles runAvg speedWind from/ knotsBaromVisibWave heightAir tempDewpointWater temp
2018-Jan-25 17:01N 45°51' W 084°37'0 0.0
2018-Jan-25 17:00N 45°51' W 084°37'0 0.0
2018-Jan-25 16:29N 45°51' W 084°37'0 0.0
2018-Jan-25 15:59N 45°51' W 084°37'0 0.0
2018-Jan-25 15:29N 45°51' W 084°37'0 0.0
2018-Jan-25 14:55N 45°51' W 084°37'0 0.0
2018-Jan-25 14:21N 45°51' W 084°37'0 0.0
2018-Jan-25 13:54N 45°51' W 084°37'0 0.0
2018-Jan-24 23:43N 45°51' W 084°37'1 4.4
2018-Jan-24 23:30N 45°51' W 084°38'3 1.4
2018-Jan-24 21:34N 45°51' W 084°42'0 5.5
2018-Jan-24 21:31N 45°51' W 084°42'3 6.0
2018-Jan-24 20:59N 45°51' W 084°37'0 0.0
2018-Jan-24 20:18N 45°51' W 084°37'0 0.1
2018-Jan-24 19:55N 45°51' W 084°37'2 4.4
2018-Jan-24 19:26N 45°51' W 084°40'2 0.7
2018-Jan-24 17:07N 45°51' W 084°42'0 1.9
2018-Jan-24 17:00N 45°51' W 084°42'0 0.5
2018-Jan-24 16:29N 45°51' W 084°41'2 3.6
2018-Jan-24 15:58N 45°51' W 084°39'1 2.7
2018-Jan-24 15:29N 45°51' W 084°37'  

Dump ship's entire track history